sensor_id;sensor_type;location;lat;lon;timestamp;P1;durP1;ratioP1;P2;durP2;ratioP2
15936;SDS011;9163;48.818;8.976;2022-10-31T00:00:42;8.63;;;4.40;;
15936;SDS011;9163;48.818;8.976;2022-10-31T00:03:09;7.63;;;3.70;;
15936;SDS011;9163;48.818;8.976;2022-10-31T00:05:39;7.83;;;4.27;;
15936;SDS011;9163;48.818;8.976;2022-10-31T00:08:08;8.83;;;4.00;;
15936;SDS011;9163;48.818;8.976;2022-10-31T00:10:37;5.20;;;3.60;;
15936;SDS011;9163;48.818;8.976;2022-10-31T00:13:04;7.80;;;4.77;;
15936;SDS011;9163;48.818;8.976;2022-10-31T00:15:32;6.73;;;4.13;;
15936;SDS011;9163;48.818;8.976;2022-10-31T00:17:59;9.10;;;4.53;;
15936;SDS011;9163;48.818;8.976;2022-10-31T00:20:26;6.60;;;4.30;;
15936;SDS011;9163;48.818;8.976;2022-10-31T00:22:56;7.60;;;4.43;;
15936;SDS011;9163;48.818;8.976;2022-10-31T00:25:26;7.37;;;4.57;;
15936;SDS011;9163;48.818;8.976;2022-10-31T00:27:54;9.37;;;4.37;;
15936;SDS011;9163;48.818;8.976;2022-10-31T00:30:21;6.27;;;4.47;;
15936;SDS011;9163;48.818;8.976;2022-10-31T00:32:49;5.17;;;3.90;;
15936;SDS011;9163;48.818;8.976;2022-10-31T00:35:16;10.13;;;4.03;;
15936;SDS011;9163;48.818;8.976;2022-10-31T00:37:43;9.33;;;4.30;;
15936;SDS011;9163;48.818;8.976;2022-10-31T00:40:10;7.37;;;4.60;;
15936;SDS011;9163;48.818;8.976;2022-10-31T00:42:40;8.53;;;4.83;;
15936;SDS011;9163;48.818;8.976;2022-10-31T00:45:08;7.90;;;5.17;;
15936;SDS011;9163;48.818;8.976;2022-10-31T00:47:36;8.20;;;4.90;;
15936;SDS011;9163;48.818;8.976;2022-10-31T00:50:04;7.70;;;4.57;;
15936;SDS011;9163;48.818;8.976;2022-10-31T00:52:31;9.10;;;4.77;;
15936;SDS011;9163;48.818;8.976;2022-10-31T00:54:58;6.87;;;4.47;;
15936;SDS011;9163;48.818;8.976;2022-10-31T00:57:25;8.63;;;4.60;;
15936;SDS011;9163;48.818;8.976;2022-10-31T00:59:54;7.90;;;4.70;;
15936;SDS011;9163;48.818;8.976;2022-10-31T01:02:21;9.03;;;4.83;;
15936;SDS011;9163;48.818;8.976;2022-10-31T01:04:48;8.27;;;4.57;;
15936;SDS011;9163;48.818;8.976;2022-10-31T01:07:15;8.50;;;4.73;;
15936;SDS011;9163;48.818;8.976;2022-10-31T01:09:43;6.77;;;4.17;;
15936;SDS011;9163;48.818;8.976;2022-10-31T01:12:10;7.10;;;4.30;;
15936;SDS011;9163;48.818;8.976;2022-10-31T01:14:37;6.73;;;3.90;;
15936;SDS011;9163;48.818;8.976;2022-10-31T01:17:05;9.87;;;4.00;;
15936;SDS011;9163;48.818;8.976;2022-10-31T01:19:33;9.87;;;4.40;;
15936;SDS011;9163;48.818;8.976;2022-10-31T01:22:00;9.67;;;4.37;;
15936;SDS011;9163;48.818;8.976;2022-10-31T01:24:27;8.07;;;4.27;;
15936;SDS011;9163;48.818;8.976;2022-10-31T01:26:54;7.00;;;3.83;;
15936;SDS011;9163;48.818;8.976;2022-10-31T01:29:21;7.53;;;4.60;;
15936;SDS011;9163;48.818;8.976;2022-10-31T01:31:49;6.40;;;3.90;;
15936;SDS011;9163;48.818;8.976;2022-10-31T01:34:17;7.23;;;4.00;;
15936;SDS011;9163;48.818;8.976;2022-10-31T01:36:44;7.00;;;4.03;;
15936;SDS011;9163;48.818;8.976;2022-10-31T01:39:17;8.53;;;4.00;;
15936;SDS011;9163;48.818;8.976;2022-10-31T01:41:45;10.30;;;4.00;;
15936;SDS011;9163;48.818;8.976;2022-10-31T01:47:21;9.20;;;3.87;;
15936;SDS011;9163;48.818;8.976;2022-10-31T01:49:59;5.70;;;3.53;;
15936;SDS011;9163;48.818;8.976;2022-10-31T01:52:30;7.53;;;3.73;;
15936;SDS011;9163;48.818;8.976;2022-10-31T01:55:03;5.30;;;3.67;;
15936;SDS011;9163;48.818;8.976;2022-10-31T01:57:33;11.63;;;4.07;;
15936;SDS011;9163;48.818;8.976;2022-10-31T02:00:05;7.77;;;4.17;;
15936;SDS011;9163;48.818;8.976;2022-10-31T02:02:35;9.07;;;3.43;;
15936;SDS011;9163;48.818;8.976;2022-10-31T02:05:05;7.93;;;3.90;;
15936;SDS011;9163;48.818;8.976;2022-10-31T02:07:36;8.17;;;3.70;;
15936;SDS011;9163;48.818;8.976;2022-10-31T02:10:07;7.67;;;4.13;;
15936;SDS011;9163;48.818;8.976;2022-10-31T02:12:35;5.97;;;3.57;;
15936;SDS011;9163;48.818;8.976;2022-10-31T02:15:03;5.53;;;3.80;;
15936;SDS011;9163;48.818;8.976;2022-10-31T02:17:31;8.03;;;3.67;;
15936;SDS011;9163;48.818;8.976;2022-10-31T02:20:00;8.77;;;3.60;;
15936;SDS011;9163;48.818;8.976;2022-10-31T02:22:38;5.97;;;3.90;;
15936;SDS011;9163;48.818;8.976;2022-10-31T02:25:15;6.33;;;3.60;;
15936;SDS011;9163;48.818;8.976;2022-10-31T02:28:04;7.43;;;3.47;;
15936;SDS011;9163;48.818;8.976;2022-10-31T02:31:05;7.87;;;3.70;;
15936;SDS011;9163;48.818;8.976;2022-10-31T02:33:44;7.07;;;3.60;;
15936;SDS011;9163;48.818;8.976;2022-10-31T02:36:17;6.57;;;3.80;;
15936;SDS011;9163;48.818;8.976;2022-10-31T02:38:51;6.63;;;4.07;;
15936;SDS011;9163;48.818;8.976;2022-10-31T02:41:31;9.13;;;3.77;;
15936;SDS011;9163;48.818;8.976;2022-10-31T02:44:05;7.23;;;3.73;;
15936;SDS011;9163;48.818;8.976;2022-10-31T02:46:39;6.10;;;3.60;;
15936;SDS011;9163;48.818;8.976;2022-10-31T02:49:12;7.13;;;4.23;;
15936;SDS011;9163;48.818;8.976;2022-10-31T02:51:45;8.27;;;4.17;;
15936;SDS011;9163;48.818;8.976;2022-10-31T02:54:17;6.77;;;3.90;;
15936;SDS011;9163;48.818;8.976;2022-10-31T02:56:46;8.00;;;4.10;;
15936;SDS011;9163;48.818;8.976;2022-10-31T02:59:15;9.30;;;4.27;;
15936;SDS011;9163;48.818;8.976;2022-10-31T03:01:47;9.00;;;4.83;;
15936;SDS011;9163;48.818;8.976;2022-10-31T03:04:42;9.97;;;4.23;;
15936;SDS011;9163;48.818;8.976;2022-10-31T03:07:19;6.57;;;4.00;;
15936;SDS011;9163;48.818;8.976;2022-10-31T03:09:52;8.13;;;4.47;;
15936;SDS011;9163;48.818;8.976;2022-10-31T03:12:28;8.17;;;4.17;;
15936;SDS011;9163;48.818;8.976;2022-10-31T03:15:00;5.77;;;4.13;;
15936;SDS011;9163;48.818;8.976;2022-10-31T03:17:40;6.93;;;4.13;;
15936;SDS011;9163;48.818;8.976;2022-10-31T03:20:13;10.57;;;4.07;;
15936;SDS011;9163;48.818;8.976;2022-10-31T03:22:46;10.40;;;4.53;;
15936;SDS011;9163;48.818;8.976;2022-10-31T03:25:14;6.80;;;3.77;;
15936;SDS011;9163;48.818;8.976;2022-10-31T03:27:43;7.40;;;4.17;;
15936;SDS011;9163;48.818;8.976;2022-10-31T03:30:11;8.87;;;4.10;;
15936;SDS011;9163;48.818;8.976;2022-10-31T03:32:41;6.33;;;4.00;;
15936;SDS011;9163;48.818;8.976;2022-10-31T03:35:11;7.47;;;3.80;;
15936;SDS011;9163;48.818;8.976;2022-10-31T03:37:41;7.67;;;4.17;;
15936;SDS011;9163;48.818;8.976;2022-10-31T03:40:09;9.27;;;4.37;;
15936;SDS011;9163;48.818;8.976;2022-10-31T03:42:40;7.03;;;4.03;;
15936;SDS011;9163;48.818;8.976;2022-10-31T03:45:13;8.03;;;3.87;;
15936;SDS011;9163;48.818;8.976;2022-10-31T03:47:47;8.17;;;4.23;;
15936;SDS011;9163;48.818;8.976;2022-10-31T03:50:15;10.97;;;4.10;;
15936;SDS011;9163;48.818;8.976;2022-10-31T03:52:43;9.20;;;3.90;;
15936;SDS011;9163;48.818;8.976;2022-10-31T03:55:16;8.03;;;4.30;;
15936;SDS011;9163;48.818;8.976;2022-10-31T03:57:47;9.00;;;4.37;;
15936;SDS011;9163;48.818;8.976;2022-10-31T04:00:19;7.13;;;3.80;;
15936;SDS011;9163;48.818;8.976;2022-10-31T04:02:50;6.13;;;3.80;;
15936;SDS011;9163;48.818;8.976;2022-10-31T04:05:22;10.73;;;4.07;;
15936;SDS011;9163;48.818;8.976;2022-10-31T04:07:50;8.43;;;3.87;;
15936;SDS011;9163;48.818;8.976;2022-10-31T04:10:21;8.20;;;4.23;;
15936;SDS011;9163;48.818;8.976;2022-10-31T04:12:51;6.83;;;4.03;;
15936;SDS011;9163;48.818;8.976;2022-10-31T04:15:24;5.60;;;3.70;;
15936;SDS011;9163;48.818;8.976;2022-10-31T04:17:55;7.67;;;4.50;;
15936;SDS011;9163;48.818;8.976;2022-10-31T04:20:31;6.63;;;4.07;;
15936;SDS011;9163;48.818;8.976;2022-10-31T04:22:59;8.00;;;3.77;;
15936;SDS011;9163;48.818;8.976;2022-10-31T04:25:26;7.10;;;3.90;;
15936;SDS011;9163;48.818;8.976;2022-10-31T04:27:53;6.93;;;4.33;;
15936;SDS011;9163;48.818;8.976;2022-10-31T04:30:21;8.87;;;4.40;;
15936;SDS011;9163;48.818;8.976;2022-10-31T04:32:48;6.03;;;4.13;;
15936;SDS011;9163;48.818;8.976;2022-10-31T04:35:17;7.07;;;4.23;;
15936;SDS011;9163;48.818;8.976;2022-10-31T04:37:44;7.80;;;3.93;;
15936;SDS011;9163;48.818;8.976;2022-10-31T04:40:11;9.27;;;4.00;;
15936;SDS011;9163;48.818;8.976;2022-10-31T04:42:38;9.60;;;4.50;;
15936;SDS011;9163;48.818;8.976;2022-10-31T04:45:06;7.73;;;4.73;;
15936;SDS011;9163;48.818;8.976;2022-10-31T04:47:33;6.73;;;4.43;;
15936;SDS011;9163;48.818;8.976;2022-10-31T04:50:00;9.70;;;4.50;;
15936;SDS011;9163;48.818;8.976;2022-10-31T04:52:29;7.07;;;4.20;;
15936;SDS011;9163;48.818;8.976;2022-10-31T04:54:57;7.57;;;4.17;;
15936;SDS011;9163;48.818;8.976;2022-10-31T04:57:24;9.67;;;4.60;;
15936;SDS011;9163;48.818;8.976;2022-10-31T04:59:51;8.47;;;4.60;;
15936;SDS011;9163;48.818;8.976;2022-10-31T05:02:18;8.33;;;4.03;;
15936;SDS011;9163;48.818;8.976;2022-10-31T05:04:45;7.23;;;4.67;;
15936;SDS011;9163;48.818;8.976;2022-10-31T05:07:12;8.27;;;4.47;;
15936;SDS011;9163;48.818;8.976;2022-10-31T05:09:41;7.50;;;4.37;;
15936;SDS011;9163;48.818;8.976;2022-10-31T05:12:08;7.93;;;4.50;;
15936;SDS011;9163;48.818;8.976;2022-10-31T05:14:35;8.13;;;4.13;;
15936;SDS011;9163;48.818;8.976;2022-10-31T05:17:02;7.10;;;4.10;;
15936;SDS011;9163;48.818;8.976;2022-10-31T05:19:29;7.47;;;4.13;;
15936;SDS011;9163;48.818;8.976;2022-10-31T05:21:57;7.30;;;4.40;;
15936;SDS011;9163;48.818;8.976;2022-10-31T05:24:24;9.33;;;4.40;;
15936;SDS011;9163;48.818;8.976;2022-10-31T05:26:55;10.17;;;4.40;;
15936;SDS011;9163;48.818;8.976;2022-10-31T05:29:22;10.73;;;4.10;;
15936;SDS011;9163;48.818;8.976;2022-10-31T05:31:49;8.93;;;4.20;;
15936;SDS011;9163;48.818;8.976;2022-10-31T05:34:16;9.73;;;4.20;;
15936;SDS011;9163;48.818;8.976;2022-10-31T05:36:43;10.33;;;4.20;;
15936;SDS011;9163;48.818;8.976;2022-10-31T05:39:11;23.97;;;11.30;;
15936;SDS011;9163;48.818;8.976;2022-10-31T05:41:38;7.97;;;5.67;;
15936;SDS011;9163;48.818;8.976;2022-10-31T05:44:06;12.87;;;6.83;;
15936;SDS011;9163;48.818;8.976;2022-10-31T05:46:34;7.03;;;4.30;;
15936;SDS011;9163;48.818;8.976;2022-10-31T05:49:01;7.20;;;4.10;;
15936;SDS011;9163;48.818;8.976;2022-10-31T05:51:28;9.03;;;5.23;;
15936;SDS011;9163;48.818;8.976;2022-10-31T05:53:55;8.57;;;5.20;;
15936;SDS011;9163;48.818;8.976;2022-10-31T05:56:22;8.53;;;4.50;;
15936;SDS011;9163;48.818;8.976;2022-10-31T05:58:49;9.30;;;4.93;;
15936;SDS011;9163;48.818;8.976;2022-10-31T06:01:18;8.20;;;3.83;;
15936;SDS011;9163;48.818;8.976;2022-10-31T06:03:45;8.40;;;4.43;;
15936;SDS011;9163;48.818;8.976;2022-10-31T06:06:12;9.43;;;5.40;;
15936;SDS011;9163;48.818;8.976;2022-10-31T06:08:39;9.30;;;4.20;;
15936;SDS011;9163;48.818;8.976;2022-10-31T06:11:08;8.03;;;4.23;;
15936;SDS011;9163;48.818;8.976;2022-10-31T06:13:35;9.27;;;4.70;;
15936;SDS011;9163;48.818;8.976;2022-10-31T06:16:02;8.53;;;6.80;;
15936;SDS011;9163;48.818;8.976;2022-10-31T06:18:31;12.83;;;8.73;;
15936;SDS011;9163;48.818;8.976;2022-10-31T06:20:58;14.03;;;6.87;;
15936;SDS011;9163;48.818;8.976;2022-10-31T06:23:25;12.77;;;7.87;;
15936;SDS011;9163;48.818;8.976;2022-10-31T06:25:52;13.13;;;8.07;;
15936;SDS011;9163;48.818;8.976;2022-10-31T06:28:20;14.97;;;9.23;;
15936;SDS011;9163;48.818;8.976;2022-10-31T06:30:47;13.70;;;8.10;;
15936;SDS011;9163;48.818;8.976;2022-10-31T06:33:15;17.63;;;8.50;;
15936;SDS011;9163;48.818;8.976;2022-10-31T06:35:45;13.93;;;10.07;;
15936;SDS011;9163;48.818;8.976;2022-10-31T06:38:13;11.70;;;7.23;;
15936;SDS011;9163;48.818;8.976;2022-10-31T06:40:40;14.90;;;9.40;;
15936;SDS011;9163;48.818;8.976;2022-10-31T06:43:07;10.23;;;5.63;;
15936;SDS011;9163;48.818;8.976;2022-10-31T06:45:36;13.17;;;6.73;;
15936;SDS011;9163;48.818;8.976;2022-10-31T06:48:04;11.83;;;5.40;;
15936;SDS011;9163;48.818;8.976;2022-10-31T06:50:31;12.50;;;4.40;;
15936;SDS011;9163;48.818;8.976;2022-10-31T06:53:00;10.70;;;4.43;;
15936;SDS011;9163;48.818;8.976;2022-10-31T06:55:27;13.27;;;4.43;;
15936;SDS011;9163;48.818;8.976;2022-10-31T06:57:55;8.70;;;4.13;;
15936;SDS011;9163;48.818;8.976;2022-10-31T07:00:25;8.47;;;3.70;;
15936;SDS011;9163;48.818;8.976;2022-10-31T07:02:54;7.60;;;3.87;;
15936;SDS011;9163;48.818;8.976;2022-10-31T07:05:22;8.63;;;4.33;;
15936;SDS011;9163;48.818;8.976;2022-10-31T07:07:51;9.60;;;4.00;;
15936;SDS011;9163;48.818;8.976;2022-10-31T07:10:21;9.10;;;3.83;;
15936;SDS011;9163;48.818;8.976;2022-10-31T07:12:53;6.40;;;4.00;;
15936;SDS011;9163;48.818;8.976;2022-10-31T07:15:21;9.90;;;4.20;;
15936;SDS011;9163;48.818;8.976;2022-10-31T07:17:48;7.17;;;4.07;;
15936;SDS011;9163;48.818;8.976;2022-10-31T07:20:15;10.33;;;5.27;;
15936;SDS011;9163;48.818;8.976;2022-10-31T07:22:43;8.20;;;5.53;;
15936;SDS011;9163;48.818;8.976;2022-10-31T07:25:10;8.90;;;5.50;;
15936;SDS011;9163;48.818;8.976;2022-10-31T07:27:39;10.00;;;4.67;;
15936;SDS011;9163;48.818;8.976;2022-10-31T07:30:08;9.50;;;5.17;;
15936;SDS011;9163;48.818;8.976;2022-10-31T07:32:37;12.80;;;7.80;;
15936;SDS011;9163;48.818;8.976;2022-10-31T07:35:05;11.20;;;8.20;;
15936;SDS011;9163;48.818;8.976;2022-10-31T07:37:33;15.53;;;4.93;;
15936;SDS011;9163;48.818;8.976;2022-10-31T07:40:01;9.63;;;4.53;;
15936;SDS011;9163;48.818;8.976;2022-10-31T07:42:28;7.60;;;4.40;;
15936;SDS011;9163;48.818;8.976;2022-10-31T07:44:56;8.67;;;4.17;;
15936;SDS011;9163;48.818;8.976;2022-10-31T07:47:24;9.50;;;3.97;;
15936;SDS011;9163;48.818;8.976;2022-10-31T07:49:51;8.60;;;4.00;;
15936;SDS011;9163;48.818;8.976;2022-10-31T07:52:18;8.73;;;4.03;;
15936;SDS011;9163;48.818;8.976;2022-10-31T07:54:45;12.03;;;4.53;;
15936;SDS011;9163;48.818;8.976;2022-10-31T07:57:12;8.77;;;3.80;;
15936;SDS011;9163;48.818;8.976;2022-10-31T07:59:40;8.67;;;3.60;;
15936;SDS011;9163;48.818;8.976;2022-10-31T08:02:08;9.37;;;4.03;;
15936;SDS011;9163;48.818;8.976;2022-10-31T08:04:35;5.90;;;3.80;;
15936;SDS011;9163;48.818;8.976;2022-10-31T08:07:02;8.07;;;4.43;;
15936;SDS011;9163;48.818;8.976;2022-10-31T08:09:30;8.33;;;5.80;;
15936;SDS011;9163;48.818;8.976;2022-10-31T08:11:57;7.10;;;4.00;;
15936;SDS011;9163;48.818;8.976;2022-10-31T08:14:24;9.93;;;3.60;;
15936;SDS011;9163;48.818;8.976;2022-10-31T08:16:52;8.07;;;3.60;;
15936;SDS011;9163;48.818;8.976;2022-10-31T08:19:20;6.60;;;3.30;;
15936;SDS011;9163;48.818;8.976;2022-10-31T08:21:50;6.50;;;3.50;;
15936;SDS011;9163;48.818;8.976;2022-10-31T08:24:17;6.73;;;4.30;;
15936;SDS011;9163;48.818;8.976;2022-10-31T08:26:45;6.03;;;4.40;;
15936;SDS011;9163;48.818;8.976;2022-10-31T08:29:12;11.27;;;4.00;;
15936;SDS011;9163;48.818;8.976;2022-10-31T08:31:40;6.77;;;4.00;;
15936;SDS011;9163;48.818;8.976;2022-10-31T08:34:07;9.60;;;3.90;;
15936;SDS011;9163;48.818;8.976;2022-10-31T08:36:35;8.27;;;3.43;;
15936;SDS011;9163;48.818;8.976;2022-10-31T08:39:03;9.03;;;3.73;;
15936;SDS011;9163;48.818;8.976;2022-10-31T08:41:30;7.60;;;3.70;;
15936;SDS011;9163;48.818;8.976;2022-10-31T08:43:57;10.47;;;3.90;;
15936;SDS011;9163;48.818;8.976;2022-10-31T08:46:24;7.53;;;3.60;;
15936;SDS011;9163;48.818;8.976;2022-10-31T08:48:51;8.17;;;3.90;;
15936;SDS011;9163;48.818;8.976;2022-10-31T08:51:18;10.13;;;3.70;;
15936;SDS011;9163;48.818;8.976;2022-10-31T08:53:47;8.50;;;3.90;;
15936;SDS011;9163;48.818;8.976;2022-10-31T08:56:14;10.73;;;4.13;;
15936;SDS011;9163;48.818;8.976;2022-10-31T08:58:41;7.60;;;3.90;;
15936;SDS011;9163;48.818;8.976;2022-10-31T09:01:08;11.53;;;4.13;;
15936;SDS011;9163;48.818;8.976;2022-10-31T09:03:36;10.10;;;3.73;;
15936;SDS011;9163;48.818;8.976;2022-10-31T09:06:03;11.30;;;4.13;;
15936;SDS011;9163;48.818;8.976;2022-10-31T09:08:34;7.83;;;3.80;;
15936;SDS011;9163;48.818;8.976;2022-10-31T09:11:03;11.30;;;4.73;;
15936;SDS011;9163;48.818;8.976;2022-10-31T09:13:32;11.17;;;4.33;;
15936;SDS011;9163;48.818;8.976;2022-10-31T09:15:59;9.70;;;4.30;;
15936;SDS011;9163;48.818;8.976;2022-10-31T09:18:26;10.97;;;4.23;;
15936;SDS011;9163;48.818;8.976;2022-10-31T09:20:54;10.40;;;4.53;;
15936;SDS011;9163;48.818;8.976;2022-10-31T09:23:23;9.03;;;3.97;;
15936;SDS011;9163;48.818;8.976;2022-10-31T09:25:51;8.60;;;4.23;;
15936;SDS011;9163;48.818;8.976;2022-10-31T09:28:22;6.20;;;3.63;;
15936;SDS011;9163;48.818;8.976;2022-10-31T09:30:51;6.50;;;3.97;;
15936;SDS011;9163;48.818;8.976;2022-10-31T09:33:19;8.30;;;3.77;;
15936;SDS011;9163;48.818;8.976;2022-10-31T09:35:47;10.10;;;4.33;;
15936;SDS011;9163;48.818;8.976;2022-10-31T09:38:15;7.93;;;3.77;;
15936;SDS011;9163;48.818;8.976;2022-10-31T09:40:46;8.87;;;3.87;;
15936;SDS011;9163;48.818;8.976;2022-10-31T09:43:15;7.40;;;3.93;;
15936;SDS011;9163;48.818;8.976;2022-10-31T09:45:54;7.07;;;3.90;;
15936;SDS011;9163;48.818;8.976;2022-10-31T09:48:30;6.18;;;3.83;;
15936;SDS011;9163;48.818;8.976;2022-10-31T09:51:04;7.50;;;3.60;;
15936;SDS011;9163;48.818;8.976;2022-10-31T09:53:37;8.63;;;3.77;;
15936;SDS011;9163;48.818;8.976;2022-10-31T09:56:08;12.10;;;3.43;;
15936;SDS011;9163;48.818;8.976;2022-10-31T09:58:42;6.93;;;3.77;;
15936;SDS011;9163;48.818;8.976;2022-10-31T10:01:16;6.97;;;3.53;;
15936;SDS011;9163;48.818;8.976;2022-10-31T10:04:01;8.57;;;3.47;;
15936;SDS011;9163;48.818;8.976;2022-10-31T10:06:38;8.40;;;3.67;;
15936;SDS011;9163;48.818;8.976;2022-10-31T10:09:11;10.52;;;3.80;;
15936;SDS011;9163;48.818;8.976;2022-10-31T10:11:42;8.25;;;3.60;;
15936;SDS011;9163;48.818;8.976;2022-10-31T10:14:27;7.45;;;3.50;;
15936;SDS011;9163;48.818;8.976;2022-10-31T10:17:11;8.88;;;3.75;;
15936;SDS011;9163;48.818;8.976;2022-10-31T10:19:51;9.73;;;3.72;;
15936;SDS011;9163;48.818;8.976;2022-10-31T10:22:31;9.68;;;3.70;;
15936;SDS011;9163;48.818;8.976;2022-10-31T10:25:13;8.38;;;3.60;;
15936;SDS011;9163;48.818;8.976;2022-10-31T10:27:47;8.85;;;3.58;;
15936;SDS011;9163;48.818;8.976;2022-10-31T10:30:20;8.80;;;3.58;;
15936;SDS011;9163;48.818;8.976;2022-10-31T10:32:50;10.23;;;3.67;;
15936;SDS011;9163;48.818;8.976;2022-10-31T10:35:21;8.48;;;3.17;;
15936;SDS011;9163;48.818;8.976;2022-10-31T10:37:51;8.93;;;3.15;;
15936;SDS011;9163;48.818;8.976;2022-10-31T10:40:23;8.68;;;3.10;;
15936;SDS011;9163;48.818;8.976;2022-10-31T10:42:55;10.85;;;3.38;;
15936;SDS011;9163;48.818;8.976;2022-10-31T10:45:43;10.65;;;3.25;;
15936;SDS011;9163;48.818;8.976;2022-10-31T10:48:35;9.88;;;3.78;;
15936;SDS011;9163;48.818;8.976;2022-10-31T10:51:10;9.00;;;4.07;;
15936;SDS011;9163;48.818;8.976;2022-10-31T10:53:49;6.13;;;3.53;;
15936;SDS011;9163;48.818;8.976;2022-10-31T10:56:32;7.15;;;3.95;;
15936;SDS011;9163;48.818;8.976;2022-10-31T10:59:06;7.55;;;4.03;;
15936;SDS011;9163;48.818;8.976;2022-10-31T11:01:39;9.25;;;4.28;;
15936;SDS011;9163;48.818;8.976;2022-10-31T11:06:56;8.35;;;3.85;;
15936;SDS011;9163;48.818;8.976;2022-10-31T11:09:23;8.75;;;3.90;;
15936;SDS011;9163;48.818;8.976;2022-10-31T11:11:51;9.40;;;4.43;;
15936;SDS011;9163;48.818;8.976;2022-10-31T11:14:18;7.38;;;4.07;;
15936;SDS011;9163;48.818;8.976;2022-10-31T11:16:49;7.03;;;3.53;;
15936;SDS011;9163;48.818;8.976;2022-10-31T11:19:19;8.82;;;3.97;;
15936;SDS011;9163;48.818;8.976;2022-10-31T11:21:48;7.82;;;3.60;;
15936;SDS011;9163;48.818;8.976;2022-10-31T11:24:16;8.05;;;3.90;;
15936;SDS011;9163;48.818;8.976;2022-10-31T11:26:45;8.75;;;4.15;;
15936;SDS011;9163;48.818;8.976;2022-10-31T11:29:15;8.60;;;4.25;;
15936;SDS011;9163;48.818;8.976;2022-10-31T11:31:44;10.13;;;4.28;;
15936;SDS011;9163;48.818;8.976;2022-10-31T11:34:17;10.48;;;4.97;;
15936;SDS011;9163;48.818;8.976;2022-10-31T11:36:52;8.80;;;4.07;;
15936;SDS011;9163;48.818;8.976;2022-10-31T11:39:20;7.47;;;4.18;;
15936;SDS011;9163;48.818;8.976;2022-10-31T11:41:50;6.85;;;4.03;;
15936;SDS011;9163;48.818;8.976;2022-10-31T11:44:20;11.32;;;4.40;;
15936;SDS011;9163;48.818;8.976;2022-10-31T11:46:49;7.80;;;4.18;;
15936;SDS011;9163;48.818;8.976;2022-10-31T11:49:20;9.25;;;4.72;;
15936;SDS011;9163;48.818;8.976;2022-10-31T11:51:54;10.95;;;4.75;;
15936;SDS011;9163;48.818;8.976;2022-10-31T11:54:25;11.85;;;5.10;;
15936;SDS011;9163;48.818;8.976;2022-10-31T11:56:55;10.55;;;4.82;;
15936;SDS011;9163;48.818;8.976;2022-10-31T11:59:25;9.27;;;5.00;;
15936;SDS011;9163;48.818;8.976;2022-10-31T12:01:54;10.75;;;5.20;;
15936;SDS011;9163;48.818;8.976;2022-10-31T12:04:27;8.38;;;5.30;;
15936;SDS011;9163;48.818;8.976;2022-10-31T12:07:00;9.25;;;5.05;;
15936;SDS011;9163;48.818;8.976;2022-10-31T12:09:28;10.90;;;4.57;;
15936;SDS011;9163;48.818;8.976;2022-10-31T12:12:06;9.13;;;5.07;;
15936;SDS011;9163;48.818;8.976;2022-10-31T12:14:46;10.63;;;4.30;;
15936;SDS011;9163;48.818;8.976;2022-10-31T12:17:21;10.63;;;4.93;;
15936;SDS011;9163;48.818;8.976;2022-10-31T12:19:57;9.00;;;5.13;;
15936;SDS011;9163;48.818;8.976;2022-10-31T12:22:33;7.07;;;4.20;;
15936;SDS011;9163;48.818;8.976;2022-10-31T12:25:20;10.10;;;4.90;;
15936;SDS011;9163;48.818;8.976;2022-10-31T12:28:03;7.68;;;4.32;;
15936;SDS011;9163;48.818;8.976;2022-10-31T12:30:48;8.25;;;4.65;;
15936;SDS011;9163;48.818;8.976;2022-10-31T12:33:25;8.82;;;4.65;;
15936;SDS011;9163;48.818;8.976;2022-10-31T12:36:10;13.55;;;5.05;;
15936;SDS011;9163;48.818;8.976;2022-10-31T12:39:00;11.30;;;4.85;;
15936;SDS011;9163;48.818;8.976;2022-10-31T12:41:51;12.55;;;5.22;;
15936;SDS011;9163;48.818;8.976;2022-10-31T12:44:26;9.75;;;4.95;;
15936;SDS011;9163;48.818;8.976;2022-10-31T12:47:23;11.13;;;5.17;;
15936;SDS011;9163;48.818;8.976;2022-10-31T12:50:12;8.93;;;4.43;;
15936;SDS011;9163;48.818;8.976;2022-10-31T12:52:53;9.40;;;4.90;;
15936;SDS011;9163;48.818;8.976;2022-10-31T12:55:31;9.27;;;5.00;;
15936;SDS011;9163;48.818;8.976;2022-10-31T12:58:07;8.37;;;4.97;;
15936;SDS011;9163;48.818;8.976;2022-10-31T13:00:42;8.77;;;4.73;;
15936;SDS011;9163;48.818;8.976;2022-10-31T13:03:19;10.73;;;4.70;;
15936;SDS011;9163;48.818;8.976;2022-10-31T13:05:51;10.70;;;5.23;;
15936;SDS011;9163;48.818;8.976;2022-10-31T13:08:24;10.70;;;5.40;;
15936;SDS011;9163;48.818;8.976;2022-10-31T13:10:57;9.03;;;5.50;;
15936;SDS011;9163;48.818;8.976;2022-10-31T13:13:33;9.77;;;5.40;;
15936;SDS011;9163;48.818;8.976;2022-10-31T13:16:04;10.80;;;5.20;;
15936;SDS011;9163;48.818;8.976;2022-10-31T13:18:38;13.17;;;5.97;;
15936;SDS011;9163;48.818;8.976;2022-10-31T13:21:10;11.67;;;5.40;;
15936;SDS011;9163;48.818;8.976;2022-10-31T13:23:43;11.60;;;5.33;;
15936;SDS011;9163;48.818;8.976;2022-10-31T13:26:14;10.10;;;5.23;;
15936;SDS011;9163;48.818;8.976;2022-10-31T13:28:47;9.90;;;5.13;;
15936;SDS011;9163;48.818;8.976;2022-10-31T13:31:19;10.45;;;5.28;;
15936;SDS011;9163;48.818;8.976;2022-10-31T13:33:48;10.63;;;5.03;;
15936;SDS011;9163;48.818;8.976;2022-10-31T13:36:21;11.82;;;5.05;;
15936;SDS011;9163;48.818;8.976;2022-10-31T13:38:59;9.45;;;5.30;;
15936;SDS011;9163;48.818;8.976;2022-10-31T13:41:40;9.88;;;5.10;;
15936;SDS011;9163;48.818;8.976;2022-10-31T13:44:13;8.57;;;5.22;;
15936;SDS011;9163;48.818;8.976;2022-10-31T13:46:42;9.63;;;5.03;;
15936;SDS011;9163;48.818;8.976;2022-10-31T13:49:21;9.43;;;5.25;;
15936;SDS011;9163;48.818;8.976;2022-10-31T13:51:51;9.85;;;5.28;;
15936;SDS011;9163;48.818;8.976;2022-10-31T13:54:21;9.60;;;5.13;;
15936;SDS011;9163;48.818;8.976;2022-10-31T13:56:50;7.93;;;4.88;;
15936;SDS011;9163;48.818;8.976;2022-10-31T13:59:19;10.80;;;4.60;;
15936;SDS011;9163;48.818;8.976;2022-10-31T14:01:49;11.82;;;4.82;;
15936;SDS011;9163;48.818;8.976;2022-10-31T14:04:20;9.00;;;4.85;;
15936;SDS011;9163;48.818;8.976;2022-10-31T14:06:54;7.78;;;4.88;;
15936;SDS011;9163;48.818;8.976;2022-10-31T14:09:30;8.60;;;4.78;;
15936;SDS011;9163;48.818;8.976;2022-10-31T14:12:00;12.30;;;5.18;;
15936;SDS011;9163;48.818;8.976;2022-10-31T14:14:32;9.35;;;5.07;;
15936;SDS011;9163;48.818;8.976;2022-10-31T14:17:12;8.38;;;4.78;;
15936;SDS011;9163;48.818;8.976;2022-10-31T14:19:55;8.90;;;5.20;;
15936;SDS011;9163;48.818;8.976;2022-10-31T14:22:28;11.02;;;5.07;;
15936;SDS011;9163;48.818;8.976;2022-10-31T14:24:58;10.07;;;5.00;;
15936;SDS011;9163;48.818;8.976;2022-10-31T14:27:35;8.88;;;4.88;;
15936;SDS011;9163;48.818;8.976;2022-10-31T14:30:16;7.47;;;4.80;;
15936;SDS011;9163;48.818;8.976;2022-10-31T14:32:51;12.18;;;4.90;;
15936;SDS011;9163;48.818;8.976;2022-10-31T14:35:21;6.63;;;4.47;;
15936;SDS011;9163;48.818;8.976;2022-10-31T14:38:01;9.23;;;4.93;;
15936;SDS011;9163;48.818;8.976;2022-10-31T14:40:41;9.65;;;4.85;;
15936;SDS011;9163;48.818;8.976;2022-10-31T14:43:37;10.13;;;5.03;;
15936;SDS011;9163;48.818;8.976;2022-10-31T14:46:30;9.55;;;4.60;;
15936;SDS011;9163;48.818;8.976;2022-10-31T14:49:12;11.18;;;5.05;;
15936;SDS011;9163;48.818;8.976;2022-10-31T14:51:50;11.55;;;4.97;;
15936;SDS011;9163;48.818;8.976;2022-10-31T14:54:19;11.20;;;5.00;;
15936;SDS011;9163;48.818;8.976;2022-10-31T14:56:53;12.30;;;5.03;;
15936;SDS011;9163;48.818;8.976;2022-10-31T14:59:26;11.55;;;5.20;;
15936;SDS011;9163;48.818;8.976;2022-10-31T15:01:57;10.05;;;5.43;;
15936;SDS011;9163;48.818;8.976;2022-10-31T15:04:27;9.38;;;5.00;;
15936;SDS011;9163;48.818;8.976;2022-10-31T15:06:59;9.07;;;5.47;;
15936;SDS011;9163;48.818;8.976;2022-10-31T15:09:32;11.85;;;5.88;;
15936;SDS011;9163;48.818;8.976;2022-10-31T15:12:16;10.05;;;5.55;;
15936;SDS011;9163;48.818;8.976;2022-10-31T15:14:49;13.10;;;5.65;;
15936;SDS011;9163;48.818;8.976;2022-10-31T15:17:17;10.43;;;5.70;;
15936;SDS011;9163;48.818;8.976;2022-10-31T15:19:44;9.47;;;5.63;;
15936;SDS011;9163;48.818;8.976;2022-10-31T15:22:13;9.03;;;5.00;;
15936;SDS011;9163;48.818;8.976;2022-10-31T15:24:42;11.73;;;5.23;;
15936;SDS011;9163;48.818;8.976;2022-10-31T15:27:12;10.87;;;5.30;;